createdAt,value
2022-08-08T00:02:29.989Z,100753.59
2022-08-08T00:07:31.589Z,100752.00
2022-08-08T00:12:56.434Z,100747.97
2022-08-08T00:18:05.052Z,100753.81
2022-08-08T00:23:14.747Z,100749.63
2022-08-08T00:28:35.693Z,100756.31
2022-08-08T00:34:17.320Z,100754.25
2022-08-08T00:41:08.077Z,100747.38
2022-08-08T00:45:03.635Z,100764.16
2022-08-08T00:50:52.367Z,100765.44
2022-08-08T00:56:41.645Z,100759.53
2022-08-08T01:02:01.993Z,100768.94
2022-08-08T01:07:55.403Z,100754.88
2022-08-08T01:13:46.109Z,100750.81
2022-08-08T01:19:52.049Z,100760.09
2022-08-08T01:25:26.364Z,100765.06
2022-08-08T01:32:14.643Z,100760.88
2022-08-08T01:37:56.338Z,100764.81
2022-08-08T01:42:55.501Z,100763.34
2022-08-08T01:48:16.781Z,100760.91
2022-08-08T01:55:26.482Z,100756.72
2022-08-08T02:00:00.779Z,100752.41
2022-08-08T02:05:04.685Z,100762.66
2022-08-08T02:10:45.209Z,100758.34
2022-08-08T02:16:02.456Z,100764.03
2022-08-08T02:21:32.435Z,100753.41
2022-08-08T02:26:47.716Z,100764.50
2022-08-08T02:32:07.043Z,100763.03
2022-08-08T02:37:52.905Z,100759.59
2022-08-08T02:44:42.690Z,100756.16
2022-08-08T02:48:56.789Z,100753.66
2022-08-08T02:54:18.822Z,100766.63
2022-08-08T03:00:31.131Z,100764.16
2022-08-08T03:06:04.053Z,100767.25
2022-08-08T03:12:01.968Z,100771.94
2022-08-08T03:17:12.657Z,100773.19
2022-08-08T03:22:38.409Z,100773.31
2022-08-08T03:27:57.071Z,100774.03
2022-08-08T03:33:58.708Z,100779.06
2022-08-08T03:38:56.432Z,100784.13
2022-08-08T03:44:09.723Z,100794.81
2022-08-08T03:49:57.388Z,100796.78
2022-08-08T03:55:01.906Z,100797.91
2022-08-08T04:00:18.361Z,100790.06
2022-08-08T04:05:29.198Z,100797.78
2022-08-08T04:10:39.400Z,100795.97
2022-08-08T04:15:55.010Z,100815.63
2022-08-08T04:21:10.772Z,100817.78
2022-08-08T04:26:16.056Z,100809.31
2022-08-08T04:31:56.933Z,100816.06
2022-08-08T04:36:43.665Z,100822.22
2022-08-08T04:41:49.621Z,100826.53
2022-08-08T04:46:55.748Z,100835.34
2022-08-08T04:52:01.503Z,100836.81
2022-08-08T04:57:07.394Z,100844.84
2022-08-08T05:02:13.796Z,100836.72
2022-08-08T05:07:17.911Z,100840.84
2022-08-08T05:12:21.442Z,100838.78
2022-08-08T05:17:53.796Z,100838.31
2022-08-08T05:22:56.662Z,100843.50
2022-08-08T05:28:03.643Z,100845.38
2022-08-08T05:33:12.546Z,100849.59
2022-08-08T05:38:30.787Z,100860.63
2022-08-08T05:44:03.687Z,100863.88
2022-08-08T05:49:11.003Z,100859.88
2022-08-08T05:54:27.102Z,100863.78
2022-08-08T05:59:59.730Z,100864.13
2022-08-08T06:05:34.760Z,100875.34
2022-08-08T06:10:43.304Z,100873.63
2022-08-08T06:15:53.633Z,100881.13
2022-08-08T06:21:32.747Z,100887.25
2022-08-08T06:26:53.025Z,100889.84
2022-08-08T06:32:09.803Z,100898.81
2022-08-08T06:37:24.400Z,100900.34
2022-08-08T06:42:37.023Z,100902.50
2022-08-08T06:47:52.732Z,100897.00
2022-08-08T06:53:17.036Z,100905.22
2022-08-08T06:58:30.375Z,100895.59
2022-08-08T07:04:36.432Z,100900.00
2022-08-08T07:09:15.061Z,100895.59
2022-08-08T07:14:33.838Z,100901.66
2022-08-08T07:19:44.450Z,100907.94
2022-08-08T07:24:53.374Z,100912.25
2022-08-08T07:30:05.785Z,100913.22
2022-08-08T07:35:16.474Z,100910.00
2022-08-08T07:40:29.848Z,100912.88
2022-08-08T07:46:05.796Z,100915.41
2022-08-08T07:51:02.660Z,100920.81
2022-08-08T07:56:17.384Z,100917.13
2022-08-08T08:02:35.397Z,100921.22
2022-08-08T08:07:08.758Z,100932.25
2022-08-08T08:12:35.412Z,100927.84
2022-08-08T08:17:48.469Z,100927.72
2022-08-08T08:22:55.006Z,100922.75
2022-08-08T08:27:59.218Z,100928.28
2022-08-08T08:33:06.423Z,100924.06
2022-08-08T08:38:17.599Z,100921.69
2022-08-08T08:43:26.729Z,100922.84
2022-08-08T08:48:32.649Z,100924.78
2022-08-08T08:53:58.857Z,100927.47
2022-08-08T08:59:06.252Z,100929.97
2022-08-08T09:04:31.351Z,100925.19
2022-08-08T09:09:55.250Z,100928.22
2022-08-08T09:15:06.468Z,100931.78
2022-08-08T09:21:57.639Z,100929.53
2022-08-08T09:25:54.509Z,100922.78
2022-08-08T09:31:12.727Z,100917.44
2022-08-08T09:36:23.548Z,100922.34
2022-08-08T09:42:14.077Z,100919.38
2022-08-08T09:47:25.923Z,100910.84
2022-08-08T09:52:56.285Z,100912.88
2022-08-08T09:58:06.173Z,100909.81
2022-08-08T10:03:19.967Z,100908.16
2022-08-08T10:08:23.003Z,100907.06
2022-08-08T10:13:35.497Z,100905.00
2022-08-08T10:18:40.555Z,100896.38
2022-08-08T10:23:50.820Z,100895.28
2022-08-08T10:29:06.158Z,100888.03
2022-08-08T10:34:18.821Z,100881.84
2022-08-08T10:39:31.597Z,100886.28
2022-08-08T10:44:49.373Z,100876.22
2022-08-08T10:50:02.257Z,100882.38
2022-08-08T10:55:08.422Z,100876.00
2022-08-08T11:00:14.192Z,100876.75
2022-08-08T11:05:23.108Z,100869.22
2022-08-08T11:10:29.335Z,100864.97
2022-08-08T11:15:32.670Z,100866.47
2022-08-08T11:20:37.198Z,100864.59
2022-08-08T11:25:52.238Z,100866.25
2022-08-08T11:30:59.778Z,100858.75
2022-08-08T11:36:05.090Z,100850.34
2022-08-08T11:41:11.606Z,100848.41
2022-08-08T11:46:18.437Z,100840.13
2022-08-08T11:51:39.235Z,100853.34
2022-08-08T11:56:43.766Z,100845.19
2022-08-08T12:02:30.365Z,100843.47
2022-08-08T12:07:30.252Z,100845.19
2022-08-08T12:12:45.926Z,100845.06
2022-08-08T12:17:51.444Z,100841.38
2022-08-08T12:22:57.108Z,100840.50
2022-08-08T12:28:15.660Z,100839.41
2022-08-08T12:33:20.565Z,100841.13
2022-08-08T12:38:31.094Z,100838.28
2022-08-08T12:43:49.715Z,100830.28
2022-08-08T12:54:27.601Z,100811.78
2022-08-08T12:59:44.690Z,100813.50
2022-08-08T13:04:51.736Z,100808.94
2022-08-08T13:10:04.825Z,100808.94
2022-08-08T13:15:10.628Z,100800.53
2022-08-08T13:20:17.306Z,100793.03
2022-08-08T13:25:23.192Z,100801.03
2022-08-08T13:30:28.227Z,100802.66
2022-08-08T13:35:41.182Z,100804.22
2022-08-08T13:40:48.907Z,100796.94
2022-08-08T13:45:54.297Z,100795.00
2022-08-08T13:51:25.057Z,100790.44
2022-08-08T13:56:44.755Z,100793.00
2022-08-08T14:02:07.260Z,100789.06
2022-08-08T14:07:13.504Z,100793.38
2022-08-08T14:12:19.127Z,100794.22
2022-08-08T14:17:58.088Z,100794.97
2022-08-08T14:22:45.847Z,100787.56
2022-08-08T14:27:59.634Z,100798.22
2022-08-08T14:33:12.904Z,100786.84
2022-08-08T14:38:33.885Z,100786.72
2022-08-08T14:44:10.470Z,100779.44
2022-08-08T14:49:20.595Z,100786.44
2022-08-08T14:54:45.600Z,100784.34
2022-08-08T14:59:51.441Z,100785.97
2022-08-08T15:05:10.471Z,100790.41
2022-08-08T15:10:16.477Z,100775.53
2022-08-08T15:16:03.010Z,100777.03
2022-08-08T15:20:44.591Z,100772.34
2022-08-08T15:25:47.357Z,100778.34
2022-08-08T15:30:51.410Z,100773.28
2022-08-08T15:35:54.725Z,100780.91
2022-08-08T15:41:12.794Z,100779.78
2022-08-08T15:46:18.271Z,100781.50
2022-08-08T15:51:32.720Z,100784.44
2022-08-08T15:56:36.502Z,100781.31
2022-08-08T16:01:59.738Z,100781.47
2022-08-08T16:07:05.124Z,100778.09
2022-08-08T16:13:14.924Z,100776.00
2022-08-08T16:17:57.658Z,100780.59
2022-08-08T16:22:55.109Z,100771.91
2022-08-08T16:27:58.561Z,100774.69
2022-08-08T16:33:02.713Z,100773.81
2022-08-08T16:38:09.714Z,100773.28
2022-08-08T16:43:15.580Z,100772.41
2022-08-08T16:48:22.626Z,100771.75
2022-08-08T16:55:22.671Z,100776.78
2022-08-08T16:58:49.490Z,100773.28
2022-08-08T17:03:58.694Z,100767.44
2022-08-08T17:09:02.935Z,100778.63
2022-08-08T17:14:05.797Z,100773.59
2022-08-08T17:19:22.128Z,100777.44
2022-08-08T17:24:27.699Z,100781.63
2022-08-08T17:29:34.138Z,100783.06
2022-08-08T17:35:52.015Z,100787.38
2022-08-08T17:40:12.390Z,100789.69
2022-08-08T17:45:22.325Z,100801.44
2022-08-08T17:50:27.520Z,100803.00
2022-08-08T17:56:06.147Z,100805.03
2022-08-08T18:00:54.483Z,100805.63
2022-08-08T18:06:02.809Z,100809.19
2022-08-08T18:11:22.880Z,100809.19
2022-08-08T18:16:27.017Z,100808.19
2022-08-08T18:22:01.693Z,100826.09
2022-08-08T18:27:00.761Z,100834.88
2022-08-08T18:32:09.946Z,100836.88
2022-08-08T18:37:33.678Z,100843.16
2022-08-08T18:42:37.256Z,100855.50
2022-08-08T18:47:48.333Z,100860.22
2022-08-08T18:52:52.539Z,100873.97
2022-08-08T18:57:55.416Z,100860.63
2022-08-08T19:03:06.077Z,100875.38
2022-08-08T19:08:25.899Z,100874.22
2022-08-08T19:13:53.098Z,100880.06
2022-08-08T19:19:02.090Z,100887.50
2022-08-08T19:24:12.730Z,100897.47
2022-08-08T19:29:31.265Z,100886.56
2022-08-08T19:34:41.348Z,100900.31
2022-08-08T19:39:46.149Z,100895.75
2022-08-08T19:44:53.904Z,100906.03
2022-08-08T19:50:00.649Z,100906.31
2022-08-08T19:55:11.493Z,100914.97
2022-08-08T20:00:29.346Z,100915.97
2022-08-08T20:06:15.137Z,100923.88
2022-08-08T20:10:58.273Z,100915.13
2022-08-08T20:16:01.361Z,100919.44
2022-08-08T20:21:04.541Z,100919.16
2022-08-08T20:26:09.452Z,100916.13
2022-08-08T20:31:13.932Z,100932.59
2022-08-08T20:36:22.274Z,100927.69
2022-08-08T20:41:26.564Z,100929.13
2022-08-08T20:46:31.547Z,100930.72
2022-08-08T20:51:36.451Z,100931.91
2022-08-08T20:57:05.706Z,100925.59
2022-08-08T21:02:06.798Z,100933.53
2022-08-08T21:07:16.399Z,100933.63
2022-08-08T21:12:20.734Z,100940.94
2022-08-08T21:17:36.741Z,100934.63
2022-08-08T21:22:39.673Z,100925.75
2022-08-08T21:28:09.127Z,100928.59
2022-08-08T21:33:10.815Z,100930.59
2022-08-08T21:38:17.069Z,100934.69
2022-08-08T21:43:22.394Z,100934.97
2022-08-08T21:48:30.384Z,100931.50
2022-08-08T21:54:35.309Z,100936.22
2022-08-08T21:59:08.839Z,100938.09
2022-08-08T22:04:12.707Z,100940.28
2022-08-08T22:09:15.551Z,100939.28
2022-08-08T22:14:21.583Z,100953.41
2022-08-08T22:19:24.401Z,100944.16
2022-08-08T22:24:31.765Z,100940.09
2022-08-08T22:29:58.988Z,100950.91
2022-08-08T22:34:59.982Z,100961.16
2022-08-08T22:40:11.913Z,100956.72
2022-08-08T22:45:21.209Z,100957.13
2022-08-08T22:50:28.409Z,100954.53
2022-08-08T22:55:31.782Z,100963.06
2022-08-08T23:00:57.988Z,100958.78
2022-08-08T23:06:02.784Z,100968.47
2022-08-08T23:11:06.508Z,100968.47
2022-08-08T23:16:41.960Z,100976.47
2022-08-08T23:21:40.393Z,100961.31
2022-08-08T23:26:43.152Z,100958.94
2022-08-08T23:31:57.981Z,100959.44
2022-08-08T23:37:02.615Z,100964.53
2022-08-08T23:42:08.253Z,100971.81
2022-08-08T23:49:05.983Z,100976.63
2022-08-08T23:52:35.365Z,100979.19
2022-08-08T23:57:51.772Z,100979.97
